Time;durP1;ratioP1;P1;durP2;ratioP2;P2;SDS_P1;SDS_P2;PMS_P1;PMS_P2;Temp;Humidity;BMP_temperature;BMP_pressure;BME280_temperature;BME280_humidity;BME280_pressure;Samples;Min_cycle;Max_cycle;Signal;HPM_P1;HPM_P2
2021/10/23 00:01:13;;;;;;;1.60;1.27;;;9.30;98.20;;;;;;5007903;28;20705;-78
2021/10/23 00:03:40;;;;;;;1.60;1.20;;;9.20;98.20;;;;;;5022713;28;20460;-78
2021/10/23 00:06:07;;;;;;;1.60;1.20;;;9.10;98.20;;;;;;5017654;28;20480;-78
2021/10/23 00:08:33;;;;;;;1.60;1.20;;;9.10;98.20;;;;;;5040538;28;20491;-78
2021/10/23 00:11:01;;;;;;;1.60;1.20;;;9.00;98.20;;;;;;5016326;28;20466;-78
2021/10/23 00:13:28;;;;;;;1.60;1.30;;;9.00;98.20;;;;;;5024335;28;20492;-78
2021/10/23 00:15:55;;;;;;;1.60;1.10;;;9.00;98.20;;;;;;5017293;28;20471;-77
2021/10/23 00:18:22;;;;;;;1.60;1.20;;;9.00;98.20;;;;;;5025762;28;20785;-78
2021/10/23 00:20:49;;;;;;;1.60;1.20;;;8.90;98.20;;;;;;5019911;28;20511;-78
2021/10/23 00:23:15;;;;;;;1.60;1.20;;;9.00;98.20;;;;;;5039528;28;20476;-79
2021/10/23 00:25:42;;;;;;;1.60;1.20;;;9.00;98.20;;;;;;5018818;28;20455;-78
2021/10/23 00:28:10;;;;;;;1.60;1.40;;;9.00;98.20;;;;;;5025596;28;20868;-78
2021/10/23 00:30:37;;;;;;;1.60;1.20;;;9.00;98.20;;;;;;5025563;28;20462;-79
2021/10/23 00:33:04;;;;;;;1.60;1.20;;;9.10;98.20;;;;;;5014118;28;20484;-78
2021/10/23 00:35:31;;;;;;;1.60;1.20;;;9.10;98.20;;;;;;5024996;28;21002;-77
2021/10/23 00:38:00;;;;;;;1.60;1.20;;;9.10;98.20;;;;;;5026531;28;20494;-78
2021/10/23 00:40:27;;;;;;;1.60;1.20;;;9.10;98.20;;;;;;5021230;28;20465;-78
2021/10/23 00:42:54;;;;;;;1.60;1.30;;;9.10;98.20;;;;;;5032689;28;20486;-78
2021/10/23 00:45:22;;;;;;;1.57;1.20;;;9.10;98.20;;;;;;5021619;28;20781;-78
2021/10/23 00:47:49;;;;;;;1.60;1.30;;;9.10;98.20;;;;;;5026370;28;20498;-78
2021/10/23 00:50:16;;;;;;;1.60;1.20;;;9.10;98.20;;;;;;5022655;28;20470;-78
2021/10/23 00:52:43;;;;;;;1.60;1.30;;;9.10;98.20;;;;;;5027168;28;20880;-79
2021/10/23 00:55:10;;;;;;;1.60;1.30;;;9.10;98.20;;;;;;5022233;28;20487;-78
2021/10/23 00:57:38;;;;;;;1.60;1.30;;;9.10;98.20;;;;;;5027143;28;20851;-78
2021/10/23 01:00:05;;;;;;;1.60;1.30;;;9.10;98.20;;;;;;5021381;28;20473;-78
2021/10/23 01:02:33;;;;;;;1.60;1.20;;;9.10;98.20;;;;;;4997243;28;20671;-79
2021/10/23 01:05:00;;;;;;;1.60;1.20;;;9.10;98.20;;;;;;5016227;28;20601;-78
2021/10/23 01:07:27;;;;;;;1.63;1.40;;;9.10;98.20;;;;;;5027166;28;20566;-78
2021/10/23 01:09:54;;;;;;;1.60;1.20;;;9.10;98.20;;;;;;5026346;28;20463;-78
2021/10/23 01:12:21;;;;;;;1.60;1.30;;;9.10;98.20;;;;;;5025890;28;20482;-78
2021/10/23 01:14:48;;;;;;;1.60;1.20;;;9.10;98.20;;;;;;5026845;28;20868;-77
2021/10/23 01:17:20;;;;;;;1.60;1.20;;;9.10;98.20;;;;;;5024709;28;20478;-79
2021/10/23 01:19:50;;;;;;;1.60;1.20;;;9.10;98.20;;;;;;5023867;28;20464;-78
2021/10/23 01:22:24;;;;;;;1.60;1.20;;;9.10;98.20;;;;;;5029743;28;20525;-78
2021/10/23 01:24:51;;;;;;;1.60;1.30;;;9.10;98.20;;;;;;5024954;28;20463;-78
2021/10/23 01:27:17;;;;;;;1.60;1.20;;;9.10;98.20;;;;;;5028071;28;20870;-78
2021/10/23 01:29:44;;;;;;;1.60;1.30;;;9.10;98.20;;;;;;5024973;28;20463;-79
2021/10/23 01:32:11;;;;;;;1.60;1.30;;;9.10;98.20;;;;;;5024892;28;20708;-78
2021/10/23 01:34:38;;;;;;;1.60;1.20;;;9.10;98.20;;;;;;5033202;28;20858;-77
2021/10/23 01:37:06;;;;;;;1.60;1.10;;;9.10;98.20;;;;;;5016840;28;20490;-77
2021/10/23 01:39:35;;;;;;;1.60;1.20;;;9.10;98.20;;;;;;5029046;28;20463;-78
2021/10/23 01:42:03;;;;;;;1.60;1.20;;;9.00;98.20;;;;;;5011911;28;20493;-78
2021/10/23 01:44:31;;;;;;;1.60;1.20;;;9.00;98.20;;;;;;5027819;28;20471;-78
2021/10/23 01:46:58;;;;;;;1.60;1.20;;;9.00;98.20;;;;;;5010893;28;20501;-79
2021/10/23 01:49:25;;;;;;;1.60;1.20;;;9.00;98.20;;;;;;5026099;28;20460;-78
2021/10/23 01:51:52;;;;;;;1.60;1.20;;;9.00;98.20;;;;;;5012283;28;20475;-79
2021/10/23 01:54:20;;;;;;;1.60;1.20;;;9.00;98.20;;;;;;5024058;28;20488;-78
2021/10/23 01:56:47;;;;;;;1.60;1.20;;;9.10;98.20;;;;;;5013470;28;20487;-79
2021/10/23 01:59:14;;;;;;;1.60;1.20;;;9.10;98.20;;;;;;5011421;28;20478;-78
2021/10/23 02:01:41;;;;;;;1.60;1.20;;;9.10;98.20;;;;;;5013383;28;20762;-78
2021/10/23 02:04:07;;;;;;;1.60;1.20;;;9.10;98.20;;;;;;5023694;28;20837;-77
2021/10/23 02:06:34;;;;;;;1.57;1.20;;;9.10;98.20;;;;;;5022277;28;20477;-78
2021/10/23 02:09:02;;;;;;;1.60;1.30;;;9.10;98.20;;;;;;5036960;28;20467;-78
2021/10/23 02:11:30;;;;;;;1.60;1.27;;;9.10;98.20;;;;;;5020394;28;20973;-78
2021/10/23 02:13:57;;;;;;;1.60;1.20;;;9.10;98.20;;;;;;5028435;28;20509;-78
2021/10/23 02:16:24;;;;;;;1.60;1.20;;;9.10;98.20;;;;;;5023300;28;20475;-79
2021/10/23 02:18:50;;;;;;;1.60;1.13;;;9.10;98.20;;;;;;5033281;28;20907;-79
2021/10/23 02:21:17;;;;;;;1.60;1.20;;;9.10;98.20;;;;;;5017372;28;21056;-79
2021/10/23 02:23:44;;;;;;;1.60;1.30;;;9.00;98.20;;;;;;5023557;28;20467;-79
2021/10/23 02:26:11;;;;;;;1.60;1.30;;;9.00;98.20;;;;;;5018659;28;20490;-79
2021/10/23 02:28:39;;;;;;;1.60;1.20;;;9.00;98.20;;;;;;5030489;28;20480;-78
2021/10/23 02:31:05;;;;;;;1.60;1.20;;;9.00;98.20;;;;;;5014691;28;20482;-78
2021/10/23 02:33:32;;;;;;;1.60;1.23;;;9.00;98.20;;;;;;5032577;28;20463;-78
2021/10/23 02:35:59;;;;;;;1.60;1.30;;;8.90;98.20;;;;;;5014370;28;20494;-78
2021/10/23 02:38:26;;;;;;;1.60;1.20;;;8.90;98.20;;;;;;5040629;28;20486;-78
2021/10/23 02:40:56;;;;;;;1.60;1.20;;;8.90;98.20;;;;;;5021216;28;20462;-78
2021/10/23 02:43:23;;;;;;;1.60;1.10;;;8.90;98.20;;;;;;5036868;28;20456;-79
2021/10/23 02:45:51;;;;;;;1.60;1.30;;;8.80;98.20;;;;;;5025841;28;20956;-79
2021/10/23 02:48:18;;;;;;;1.60;1.30;;;8.80;98.20;;;;;;5043810;28;20487;-79
2021/10/23 02:50:45;;;;;;;1.60;1.20;;;8.80;98.20;;;;;;5021542;28;20832;-78
2021/10/23 02:53:12;;;;;;;1.60;1.20;;;8.70;98.20;;;;;;5017824;28;20726;-77
2021/10/23 02:55:39;;;;;;;1.60;1.27;;;8.60;98.20;;;;;;5016701;28;20593;-77
2021/10/23 02:58:06;;;;;;;1.60;1.20;;;8.60;98.20;;;;;;5030459;28;20489;-77
2021/10/23 03:00:33;;;;;;;1.60;1.30;;;8.60;98.20;;;;;;5022999;28;20553;-77
2021/10/23 03:03:01;;;;;;;1.60;1.30;;;8.60;98.20;;;;;;5025101;28;20569;-78
2021/10/23 03:05:28;;;;;;;1.60;1.27;;;8.60;98.20;;;;;;5020877;28;20551;-78
2021/10/23 03:07:55;;;;;;;1.60;1.30;;;8.60;98.20;;;;;;5031656;28;20486;-79
2021/10/23 03:10:22;;;;;;;1.60;1.30;;;8.60;98.20;;;;;;5026608;28;20488;-77
2021/10/23 03:12:48;;;;;;;1.60;1.20;;;8.70;98.20;;;;;;5010946;28;20778;-79
2021/10/23 03:15:15;;;;;;;1.60;1.20;;;8.70;98.20;;;;;;5023729;28;20494;-79
2021/10/23 03:17:42;;;;;;;1.60;1.20;;;8.70;98.20;;;;;;5026309;28;20490;-80
2021/10/23 03:20:12;;;;;;;1.60;1.27;;;8.80;98.20;;;;;;5019229;28;20590;-79
2021/10/23 03:22:38;;;;;;;1.60;1.30;;;8.80;98.20;;;;;;5026885;28;20493;-79
2021/10/23 03:25:06;;;;;;;1.60;1.20;;;8.80;98.20;;;;;;5018441;28;20464;-79
2021/10/23 03:27:32;;;;;;;1.60;1.30;;;8.90;98.20;;;;;;5018239;28;20882;-80
2021/10/23 03:29:59;;;;;;;1.60;1.20;;;8.90;98.20;;;;;;5021596;28;20479;-78
2021/10/23 03:32:26;;;;;;;1.60;1.30;;;8.90;98.20;;;;;;5031042;28;20486;-78
2021/10/23 03:34:54;;;;;;;1.60;1.37;;;8.90;98.20;;;;;;5022387;28;20542;-78
2021/10/23 03:37:23;;;;;;;1.60;1.20;;;8.90;98.20;;;;;;5026473;28;20512;-79
2021/10/23 03:39:49;;;;;;;1.60;1.20;;;8.90;98.20;;;;;;5023624;28;20834;-79
2021/10/23 03:42:16;;;;;;;1.60;1.20;;;8.90;98.20;;;;;;5021313;28;20851;-79
2021/10/23 03:44:43;;;;;;;1.60;1.20;;;8.90;98.20;;;;;;5024607;28;20460;-80
2021/10/23 03:47:10;;;;;;;1.60;1.20;;;8.90;98.20;;;;;;5029466;28;20562;-79
2021/10/23 03:49:37;;;;;;;1.60;1.30;;;8.80;98.20;;;;;;5023250;28;20486;-79
2021/10/23 03:52:04;;;;;;;1.60;1.20;;;8.80;98.20;;;;;;5026253;28;20478;-79
2021/10/23 03:54:32;;;;;;;1.60;1.20;;;8.70;98.20;;;;;;5029441;28;20456;-79
2021/10/23 03:56:59;;;;;;;1.60;1.23;;;8.70;98.20;;;;;;5021444;28;20487;-79
2021/10/23 03:59:25;;;;;;;1.60;1.30;;;8.70;98.20;;;;;;5030173;28;20501;-79
2021/10/23 04:01:52;;;;;;;1.60;1.20;;;8.60;98.20;;;;;;5022249;28;20482;-80
2021/10/23 04:04:19;;;;;;;1.90;1.70;;;8.60;98.20;;;;;;5028833;28;20483;-80
2021/10/23 04:06:46;;;;;;;1.60;1.20;;;8.60;98.20;;;;;;5025907;28;20486;-79
2021/10/23 04:09:12;;;;;;;1.60;1.20;;;8.60;98.20;;;;;;5034298;28;21235;-80
2021/10/23 04:11:41;;;;;;;1.60;1.30;;;8.70;98.20;;;;;;5025158;28;20474;-79
2021/10/23 04:14:08;;;;;;;1.60;1.20;;;8.70;98.20;;;;;;5036027;28;20467;-78
2021/10/23 04:16:35;;;;;;;1.60;1.20;;;8.70;98.20;;;;;;5025171;28;20751;-80
2021/10/23 04:19:01;;;;;;;1.60;1.23;;;8.70;98.20;;;;;;5038068;28;20858;-79
2021/10/23 04:21:28;;;;;;;1.60;1.20;;;8.70;98.20;;;;;;5025293;28;20471;-79
2021/10/23 04:23:55;;;;;;;1.60;1.23;;;8.70;98.20;;;;;;5025276;28;20475;-79
2021/10/23 04:26:22;;;;;;;1.60;1.30;;;8.70;98.20;;;;;;5023841;28;20463;-80
2021/10/23 04:28:50;;;;;;;1.60;1.23;;;8.80;98.20;;;;;;5026401;28;20459;-80
2021/10/23 04:31:17;;;;;;;1.60;1.20;;;8.80;98.20;;;;;;5020097;28;20464;-79
2021/10/23 04:33:43;;;;;;;1.60;1.30;;;8.70;98.20;;;;;;5025497;28;20474;-79
2021/10/23 04:36:11;;;;;;;1.60;1.20;;;8.70;98.20;;;;;;5024712;28;20853;-78
2021/10/23 04:38:38;;;;;;;1.60;1.30;;;8.70;98.20;;;;;;5026810;28;20480;-79
2021/10/23 04:41:05;;;;;;;1.60;1.20;;;8.60;98.20;;;;;;5021208;28;20498;-79
2021/10/23 04:43:32;;;;;;;1.60;1.27;;;8.60;98.20;;;;;;5025815;28;20459;-77
2021/10/23 04:46:00;;;;;;;1.60;1.20;;;8.50;98.20;;;;;;5025789;28;20447;-79
2021/10/23 04:48:27;;;;;;;1.60;1.20;;;8.50;98.20;;;;;;5030607;28;20486;-79
2021/10/23 04:50:54;;;;;;;1.60;1.20;;;8.50;98.20;;;;;;5030920;28;20463;-79
2021/10/23 04:53:21;;;;;;;1.60;1.20;;;8.40;98.20;;;;;;5021604;28;20472;-79
2021/10/23 04:55:47;;;;;;;1.60;1.20;;;8.40;98.20;;;;;;5027644;28;20479;-79
2021/10/23 04:58:14;;;;;;;1.60;1.40;;;8.30;98.20;;;;;;5017313;28;20498;-79
2021/10/23 05:00:41;;;;;;;1.60;1.10;;;8.30;98.20;;;;;;5024762;28;20459;-79
2021/10/23 05:03:09;;;;;;;1.60;1.20;;;8.30;98.20;;;;;;5024116;28;20473;-80
2021/10/23 05:05:36;;;;;;;1.60;1.20;;;8.30;98.20;;;;;;5026337;28;20758;-79
2021/10/23 05:08:03;;;;;;;1.60;1.30;;;8.30;98.20;;;;;;5027580;28;20494;-79
2021/10/23 05:10:30;;;;;;;1.60;1.30;;;8.30;98.20;;;;;;5023467;28;20455;-80
2021/10/23 05:12:56;;;;;;;1.60;1.30;;;8.20;98.20;;;;;;5027151;28;20685;-80
2021/10/23 05:15:24;;;;;;;1.60;1.30;;;8.20;98.20;;;;;;5025092;28;20492;-78
2021/10/23 05:17:50;;;;;;;1.60;1.20;;;8.20;98.20;;;;;;5025378;28;21137;-79
2021/10/23 05:20:18;;;;;;;1.60;1.30;;;8.10;98.20;;;;;;5019714;28;20475;-77
2021/10/23 05:22:45;;;;;;;1.60;1.20;;;8.10;98.20;;;;;;5030568;28;20500;-79
2021/10/23 05:25:12;;;;;;;1.63;1.40;;;8.10;98.20;;;;;;5027742;28;20459;-79
2021/10/23 05:27:39;;;;;;;1.60;1.20;;;8.00;98.20;;;;;;5025483;28;20616;-78
2021/10/23 05:30:06;;;;;;;1.60;1.20;;;8.00;98.20;;;;;;5026005;28;20470;-78
2021/10/23 05:32:33;;;;;;;1.60;1.20;;;8.00;98.20;;;;;;5020741;28;20844;-79
2021/10/23 05:35:00;;;;;;;1.60;1.20;;;8.00;98.20;;;;;;5021138;28;20478;-76
2021/10/23 05:37:28;;;;;;;1.60;1.20;;;7.90;98.20;;;;;;5018982;28;20495;-78
2021/10/23 05:39:54;;;;;;;1.60;1.37;;;7.90;98.20;;;;;;5025121;28;20467;-78
2021/10/23 05:42:21;;;;;;;1.60;1.20;;;7.90;98.20;;;;;;5026871;28;20497;-78
2021/10/23 05:44:48;;;;;;;1.60;1.30;;;7.80;98.20;;;;;;5021188;28;20478;-79
2021/10/23 05:47:15;;;;;;;1.60;1.30;;;7.80;98.20;;;;;;5022310;28;20514;-76
2021/10/23 05:49:42;;;;;;;1.60;1.33;;;7.80;98.20;;;;;;5018341;28;20471;-77
2021/10/23 05:52:09;;;;;;;1.60;1.30;;;7.80;98.20;;;;;;5012742;28;20713;-76
2021/10/23 05:54:38;;;;;;;1.60;1.30;;;7.70;98.20;;;;;;5023911;28;20874;-77
2021/10/23 05:57:06;;;;;;;1.60;1.30;;;7.70;98.20;;;;;;5020333;28;20760;-77
2021/10/23 05:59:33;;;;;;;1.60;1.27;;;7.70;98.20;;;;;;5025036;28;21235;-76
2021/10/23 06:02:11;;;;;;;1.67;1.40;;;7.60;98.20;;;;;;5014334;28;20470;-77
2021/10/23 06:04:37;;;;;;;1.60;1.20;;;7.60;98.20;;;;;;5027063;28;20547;-79
2021/10/23 06:07:06;;;;;;;1.60;1.27;;;7.50;98.20;;;;;;5025197;28;20512;-79
2021/10/23 06:09:33;;;;;;;1.60;1.30;;;7.50;98.20;;;;;;5034670;28;20456;-79
2021/10/23 06:12:02;;;;;;;1.60;1.30;;;7.40;98.20;;;;;;5018117;28;20479;-79
2021/10/23 06:14:29;;;;;;;1.60;1.30;;;7.40;98.20;;;;;;5020265;28;20456;-79
2021/10/23 06:16:55;;;;;;;1.60;1.30;;;7.40;98.20;;;;;;5029884;28;20492;-77
2021/10/23 06:19:22;;;;;;;1.60;1.30;;;7.30;98.20;;;;;;5032082;28;20565;-78
2021/10/23 06:21:49;;;;;;;1.60;1.30;;;7.30;98.20;;;;;;5017641;28;20486;-76
2021/10/23 06:24:16;;;;;;;1.60;1.30;;;7.30;98.20;;;;;;5013636;28;20550;-76
2021/10/23 06:26:43;;;;;;;1.60;1.30;;;7.30;98.20;;;;;;5017529;28;20489;-77
2021/10/23 06:29:11;;;;;;;1.60;1.30;;;7.20;98.20;;;;;;5032522;28;20474;-77
2021/10/23 06:31:38;;;;;;;1.67;1.40;;;7.20;98.20;;;;;;5016663;28;20481;-78
2021/10/23 06:34:04;;;;;;;1.70;1.50;;;7.20;98.20;;;;;;5028586;28;20466;-76
2021/10/23 06:36:31;;;;;;;1.60;1.30;;;7.20;98.20;;;;;;5016977;28;20506;-77
2021/10/23 06:38:58;;;;;;;1.60;1.30;;;7.20;98.20;;;;;;5029439;28;20468;-77
2021/10/23 06:41:25;;;;;;;1.60;1.30;;;7.20;98.20;;;;;;5019609;28;20473;-77
2021/10/23 06:43:51;;;;;;;1.60;1.40;;;7.20;98.20;;;;;;5034664;28;20973;-77
2021/10/23 06:46:20;;;;;;;1.60;1.30;;;7.30;98.20;;;;;;5017756;28;20471;-77
2021/10/23 06:48:46;;;;;;;1.60;1.33;;;7.30;98.20;;;;;;5035369;28;20462;-77
2021/10/23 06:51:13;;;;;;;1.60;1.30;;;7.30;98.20;;;;;;5018692;28;20534;-77
2021/10/23 06:53:40;;;;;;;1.70;1.40;;;7.30;98.20;;;;;;5037841;28;20467;-77
2021/10/23 06:56:07;;;;;;;1.70;1.40;;;7.40;98.20;;;;;;5009616;28;20480;-77
2021/10/23 06:58:34;;;;;;;1.60;1.30;;;7.40;98.20;;;;;;5019618;28;20836;-77
2021/10/23 07:01:00;;;;;;;1.60;1.30;;;7.50;98.20;;;;;;5008766;28;20464;-77
2021/10/23 07:03:28;;;;;;;1.60;1.30;;;7.60;98.20;;;;;;5037957;28;20551;-77
2021/10/23 07:05:55;;;;;;;1.60;1.30;;;7.70;98.20;;;;;;5017162;28;20464;-77
2021/10/23 07:08:22;;;;;;;1.60;1.30;;;7.80;98.20;;;;;;5015179;28;21017;-77
2021/10/23 07:10:49;;;;;;;1.60;1.30;;;7.90;98.20;;;;;;5020871;28;20978;-77
2021/10/23 07:13:15;;;;;;;1.60;1.30;;;8.10;98.20;;;;;;5038489;28;20478;-77
2021/10/23 07:15:43;;;;;;;1.60;1.30;;;8.20;98.20;;;;;;5027782;28;20486;-77
2021/10/23 07:18:10;;;;;;;1.60;1.23;;;8.40;98.20;;;;;;5014350;28;20570;-78
2021/10/23 07:20:38;;;;;;;1.60;1.20;;;8.50;98.20;;;;;;5021516;28;20468;-77
2021/10/23 07:23:05;;;;;;;1.60;1.30;;;8.60;98.20;;;;;;5027810;28;20889;-77
2021/10/23 07:25:32;;;;;;;1.67;1.30;;;8.80;98.20;;;;;;5020102;28;20482;-77
2021/10/23 07:27:59;;;;;;;1.60;1.27;;;8.90;98.20;;;;;;5028606;28;20486;-77
2021/10/23 07:30:26;;;;;;;1.60;1.20;;;8.90;98.20;;;;;;5018290;28;20947;-77
2021/10/23 07:32:53;;;;;;;1.60;1.20;;;9.00;98.20;;;;;;5032254;28;20482;-77
2021/10/23 07:35:20;;;;;;;1.60;1.20;;;9.10;98.20;;;;;;5021511;28;20991;-78
2021/10/23 07:37:48;;;;;;;1.60;1.20;;;9.20;98.20;;;;;;5029437;28;20490;-77
2021/10/23 07:40:16;;;;;;;1.60;1.20;;;9.30;98.20;;;;;;5022982;28;20463;-77
2021/10/23 07:42:43;;;;;;;1.60;1.20;;;9.40;98.20;;;;;;5026119;28;20474;-77
2021/10/23 07:45:12;;;;;;;1.60;1.20;;;9.50;98.20;;;;;;5007740;28;21147;-78
2021/10/23 07:47:40;;;;;;;1.60;1.20;;;9.60;98.20;;;;;;5004648;28;20479;-78
2021/10/23 07:50:08;;;;;;;1.60;1.40;;;9.70;98.20;;;;;;5026356;28;20455;-78
2021/10/23 07:52:36;;;;;;;1.60;1.20;;;9.70;98.20;;;;;;5027166;28;20474;-77
2021/10/23 07:55:05;;;;;;;1.60;1.23;;;9.80;98.20;;;;;;5018150;28;20550;-77
2021/10/23 07:57:32;;;;;;;1.60;1.20;;;9.90;98.20;;;;;;5007350;28;20534;-77
2021/10/23 07:59:59;;;;;;;1.60;1.20;;;9.90;98.20;;;;;;5020353;28;20463;-77
2021/10/23 08:02:25;;;;;;;1.60;1.17;;;10.00;98.20;;;;;;5003620;28;20511;-78
2021/10/23 08:04:52;;;;;;;1.60;1.20;;;10.10;98.20;;;;;;5021099;28;20478;-77
2021/10/23 08:07:19;;;;;;;2.00;1.57;;;10.10;98.20;;;;;;5009598;28;20487;-77
2021/10/23 08:09:46;;;;;;;1.60;1.20;;;10.20;98.20;;;;;;5010755;28;20466;-78
2021/10/23 08:12:14;;;;;;;1.60;1.20;;;10.30;98.20;;;;;;5004341;28;20486;-77
2021/10/23 08:14:41;;;;;;;1.60;1.20;;;10.30;98.20;;;;;;5012431;28;20517;-77
2021/10/23 08:17:07;;;;;;;1.60;1.10;;;10.40;98.20;;;;;;5009409;28;21012;-77
2021/10/23 08:19:35;;;;;;;1.60;1.20;;;10.50;98.20;;;;;;5021533;28;20478;-77
2021/10/23 08:22:02;;;;;;;1.60;1.20;;;10.50;98.20;;;;;;5015967;28;21254;-77
2021/10/23 08:24:29;;;;;;;1.60;1.10;;;10.60;98.20;;;;;;5027005;28;20463;-77
2021/10/23 08:26:55;;;;;;;1.60;1.10;;;10.70;98.20;;;;;;5012542;28;20935;-78
2021/10/23 08:29:23;;;;;;;1.60;1.30;;;10.70;98.20;;;;;;5021542;28;20468;-77
2021/10/23 08:31:50;;;;;;;1.60;1.10;;;10.80;98.20;;;;;;5012505;28;20494;-77
2021/10/23 08:34:17;;;;;;;1.60;1.10;;;11.00;98.20;;;;;;5023279;28;20467;-77
2021/10/23 08:36:45;;;;;;;1.60;1.10;;;11.10;98.20;;;;;;5009331;28;21111;-77
2021/10/23 08:39:13;;;;;;;1.60;1.10;;;11.20;98.20;;;;;;5024124;28;20894;-78
2021/10/23 08:41:43;;;;;;;1.60;1.10;;;11.30;98.20;;;;;;5015313;28;20486;-77
2021/10/23 08:44:13;;;;;;;1.60;1.10;;;11.40;98.20;;;;;;5022369;28;20467;-78
2021/10/23 08:46:44;;;;;;;1.60;1.20;;;11.60;98.20;;;;;;5019623;28;21139;-78
2021/10/23 08:49:11;;;;;;;1.60;1.20;;;11.70;98.20;;;;;;5021565;28;20459;-78
2021/10/23 08:51:38;;;;;;;1.60;1.10;;;11.80;98.20;;;;;;5015224;28;20482;-78
2021/10/23 08:54:05;;;;;;;1.60;1.10;;;11.80;98.20;;;;;;5022668;28;20467;-78
2021/10/23 08:56:32;;;;;;;1.60;1.10;;;11.90;98.20;;;;;;5003664;28;20554;-78
2021/10/23 08:58:58;;;;;;;1.60;1.10;;;11.90;98.20;;;;;;5012600;28;20479;-78
2021/10/23 09:01:25;;;;;;;1.60;1.10;;;12.00;98.20;;;;;;5013228;28;20497;-77
2021/10/23 09:03:53;;;;;;;1.60;1.10;;;12.00;98.20;;;;;;5031266;28;20475;-78
2021/10/23 09:06:30;;;;;;;1.60;1.10;;;12.10;98.20;;;;;;5008245;28;20479;-78
2021/10/23 09:09:02;;;;;;;1.60;1.10;;;12.20;98.20;;;;;;5019559;28;21194;-77
2021/10/23 09:11:34;;;;;;;1.60;1.10;;;12.30;98.20;;;;;;5008391;28;20492;-77
2021/10/23 09:14:26;;;;;;;1.60;1.10;;;12.30;98.20;;;;;;5027755;28;20481;-78
2021/10/23 09:17:09;;;;;;;1.60;1.10;;;12.40;98.20;;;;;;5004769;28;21134;-78
2021/10/23 09:19:43;;;;;;;1.60;1.07;;;12.50;98.20;;;;;;5016864;28;20471;-77
2021/10/23 09:22:25;;;;;;;1.60;1.00;;;12.50;98.20;;;;;;5018125;28;20575;-78
2021/10/23 09:24:54;;;;;;;1.53;1.00;;;12.60;98.20;;;;;;5016685;28;20471;-77
2021/10/23 09:27:20;;;;;;;1.60;1.10;;;12.60;98.20;;;;;;5017891;28;20494;-76
2021/10/23 09:29:55;;;;;;;1.60;1.00;;;12.70;98.20;;;;;;5018792;28;20841;-77
2021/10/23 09:32:22;;;;;;;1.60;1.10;;;12.80;98.20;;;;;;5021602;28;20486;-77
2021/10/23 09:34:50;;;;;;;1.70;1.50;;;12.90;98.20;;;;;;5016191;28;20835;-77
2021/10/23 09:37:17;;;;;;;2.00;1.73;;;12.90;98.20;;;;;;5002417;28;20483;-76
2021/10/23 09:39:44;;;;;;;1.60;1.10;;;13.00;98.20;;;;;;5014300;28;20491;-77
2021/10/23 09:42:16;;;;;;;1.60;1.00;;;13.00;98.20;;;;;;5013468;28;20487;-77
2021/10/23 09:45:04;;;;;;;1.60;1.00;;;13.10;98.20;;;;;;5011119;28;20464;-77
2021/10/23 09:47:33;;;;;;;1.60;1.10;;;13.10;98.20;;;;;;4999613;28;20595;-76
2021/10/23 09:50:14;;;;;;;1.60;1.00;;;13.20;98.20;;;;;;5020104;28;20946;-76
2021/10/23 09:53:03;;;;;;;1.60;1.10;;;13.30;98.20;;;;;;5022071;28;20478;-76
2021/10/23 09:55:32;;;;;;;1.60;1.00;;;13.40;98.20;;;;;;5011325;28;20464;-76
2021/10/23 09:58:10;;;;;;;1.60;1.10;;;13.40;98.20;;;;;;5025512;28;20552;-76
2021/10/23 10:00:38;;;;;;;1.60;1.00;;;13.50;98.20;;;;;;5015821;28;20813;-76
2021/10/23 10:03:07;;;;;;;1.60;1.07;;;13.60;98.20;;;;;;5000026;28;20491;-76
2021/10/23 10:05:36;;;;;;;1.60;1.00;;;13.70;98.20;;;;;;5017211;28;20504;-79
2021/10/23 10:08:11;;;;;;;1.60;1.10;;;13.70;98.20;;;;;;5019153;28;20497;-78
2021/10/23 10:10:39;;;;;;;1.57;0.90;;;13.80;98.20;;;;;;5013934;28;20468;-76
2021/10/23 10:13:07;;;;;;;1.60;1.00;;;13.80;98.20;;;;;;5003978;28;20525;-76
2021/10/23 10:15:34;;;;;;;1.60;1.00;;;13.90;98.20;;;;;;5017620;28;20459;-74
2021/10/23 10:18:06;;;;;;;1.60;1.00;;;14.00;98.20;;;;;;5026378;28;20908;-77
2021/10/23 10:20:43;;;;;;;1.60;1.00;;;14.10;98.20;;;;;;5014825;28;21013;-78
2021/10/23 10:23:11;;;;;;;1.60;1.00;;;14.10;98.20;;;;;;5004831;28;20993;-78
2021/10/23 10:25:39;;;;;;;1.53;1.00;;;14.20;98.20;;;;;;5017554;28;20468;-77
2021/10/23 10:28:11;;;;;;;1.60;1.07;;;14.20;98.20;;;;;;5005153;28;21148;-76
2021/10/23 10:30:40;;;;;;;1.70;1.30;;;14.20;98.20;;;;;;5014330;28;20475;-76
2021/10/23 10:33:19;;;;;;;1.60;1.00;;;14.20;98.20;;;;;;5016855;28;21000;-76
2021/10/23 10:36:14;;;;;;;1.60;1.00;;;14.20;98.20;;;;;;5018575;28;21152;-76
2021/10/23 10:38:55;;;;;;;1.50;1.00;;;14.20;98.20;;;;;;5009739;28;20490;-76
2021/10/23 10:44:17;;;;;;;1.50;1.00;;;14.10;98.20;;;;;;5028844;28;20458;-76
2021/10/23 10:47:11;;;;;;;1.57;1.00;;;14.00;98.20;;;;;;5003173;28;20498;-76
2021/10/23 10:49:53;;;;;;;1.60;1.10;;;14.00;98.20;;;;;;5017582;28;20975;-76
2021/10/23 10:53:05;;;;;;;1.50;1.00;;;13.90;98.20;;;;;;5019465;28;20490;-76
2021/10/23 10:55:41;;;;;;;1.60;1.00;;;13.80;98.20;;;;;;5017228;28;20581;-76
2021/10/23 10:58:10;;;;;;;1.57;1.00;;;13.80;98.20;;;;;;5008625;28;20532;-76
2021/10/23 11:01:12;;;;;;;1.50;0.93;;;13.90;98.20;;;;;;5020560;28;20861;-76
2021/10/23 11:03:43;;;;;;;1.53;1.00;;;13.90;98.20;;;;;;5010237;28;20472;-76
2021/10/23 11:06:48;;;;;;;1.53;1.00;;;13.90;98.20;;;;;;5009334;28;20573;-76
2021/10/23 11:09:42;;;;;;;1.57;1.00;;;13.90;98.20;;;;;;5030233;28;20532;-76
2021/10/23 11:12:37;;;;;;;1.50;1.00;;;13.90;98.20;;;;;;5007766;28;20574;-76
2021/10/23 11:15:04;;;;;;;1.53;0.90;;;13.90;98.20;;;;;;5017274;28;20473;-75
2021/10/23 11:17:38;;;;;;;1.50;1.00;;;14.00;98.20;;;;;;5024309;28;20482;-76
2021/10/23 11:20:11;;;;;;;1.57;1.00;;;14.00;98.20;;;;;;5015213;28;20468;-76
2021/10/23 11:22:39;;;;;;;1.60;1.00;;;14.00;98.20;;;;;;5021443;28;20688;-76
2021/10/23 11:25:08;;;;;;;1.50;1.00;;;14.00;98.20;;;;;;5024370;28;20463;-75
2021/10/23 11:27:42;;;;;;;1.60;1.00;;;14.10;98.20;;;;;;5004207;28;20487;-76
2021/10/23 11:30:12;;;;;;;1.50;1.00;;;14.10;98.20;;;;;;5014513;28;20463;-76
2021/10/23 11:32:41;;;;;;;1.50;0.97;;;14.10;98.20;;;;;;5021176;28;20504;-75
2021/10/23 11:35:09;;;;;;;1.50;1.00;;;14.10;98.20;;;;;;5020004;28;20495;-75
2021/10/23 11:37:36;;;;;;;1.60;1.00;;;14.10;98.20;;;;;;5020442;28;20485;-76
2021/10/23 11:40:05;;;;;;;1.50;1.00;;;14.20;98.20;;;;;;5018242;28;20471;-75
2021/10/23 11:42:34;;;;;;;1.60;1.10;;;14.20;98.20;;;;;;5008902;28;20483;-75
2021/10/23 11:45:06;;;;;;;1.57;1.00;;;14.30;98.20;;;;;;5019727;28;20479;-76
2021/10/23 11:47:33;;;;;;;1.60;1.30;;;14.30;98.20;;;;;;5022290;28;20482;-77
2021/10/23 11:50:01;;;;;;;1.50;1.00;;;14.40;98.20;;;;;;5019148;28;20502;-77
2021/10/23 11:52:29;;;;;;;1.50;0.90;;;14.50;98.20;;;;;;5000912;28;20480;-77
2021/10/23 11:54:57;;;;;;;1.50;1.00;;;14.50;98.20;;;;;;5017508;28;20463;-76
2021/10/23 11:57:40;;;;;;;1.53;1.00;;;14.50;98.20;;;;;;5005531;28;20542;-76
2021/10/23 12:00:16;;;;;;;1.53;1.00;;;14.40;98.20;;;;;;5014698;28;20847;-76
2021/10/23 12:02:49;;;;;;;1.57;1.00;;;14.40;98.20;;;;;;5011021;28;20650;-77
2021/10/23 12:05:19;;;;;;;1.57;1.00;;;14.30;98.20;;;;;;5015827;28;20467;-77
2021/10/23 12:07:45;;;;;;;1.57;1.00;;;14.20;98.20;;;;;;5024995;28;20997;-76
2021/10/23 12:10:12;;;;;;;1.57;1.00;;;14.10;98.20;;;;;;5021214;28;20470;-76
2021/10/23 12:12:39;;;;;;;1.57;1.00;;;14.10;98.20;;;;;;5024291;28;20498;-76
2021/10/23 12:15:18;;;;;;;1.57;1.00;;;14.10;98.20;;;;;;5015826;28;20471;-77
2021/10/23 12:17:56;;;;;;;1.57;1.00;;;14.10;98.20;;;;;;5022622;28;20482;-76
2021/10/23 12:20:23;;;;;;;1.50;1.00;;;14.10;98.20;;;;;;5011109;28;20472;-76
2021/10/23 12:22:50;;;;;;;1.50;1.00;;;14.10;98.20;;;;;;5008109;28;21109;-75
2021/10/23 12:25:16;;;;;;;1.57;1.00;;;14.00;98.20;;;;;;5008647;28;20469;-75
2021/10/23 12:27:43;;;;;;;1.60;1.00;;;14.00;98.20;;;;;;5023651;28;20488;-75
2021/10/23 12:30:13;;;;;;;1.53;0.97;;;14.00;98.20;;;;;;5015102;28;20477;-75
2021/10/23 12:32:43;;;;;;;1.60;0.97;;;14.00;98.20;;;;;;5002810;28;20475;-75
2021/10/23 12:35:12;;;;;;;1.53;1.00;;;14.00;98.20;;;;;;5021343;28;20494;-75
2021/10/23 12:37:45;;;;;;;1.57;1.00;;;14.00;98.20;;;;;;5023919;28;20478;-75
2021/10/23 12:40:15;;;;;;;1.57;1.00;;;14.00;98.20;;;;;;5012969;28;20566;-75
2021/10/23 12:42:45;;;;;;;1.60;1.10;;;14.00;98.20;;;;;;5025450;28;21102;-75
2021/10/23 12:45:14;;;;;;;1.57;1.00;;;14.00;98.20;;;;;;5020874;28;20494;-75
2021/10/23 12:47:42;;;;;;;1.53;1.00;;;13.90;98.20;;;;;;5006873;28;20479;-75
2021/10/23 12:50:10;;;;;;;1.57;1.00;;;13.80;98.20;;;;;;5018672;28;20490;-75
2021/10/23 12:52:39;;;;;;;1.53;1.00;;;13.80;98.20;;;;;;5019661;28;20847;-75
2021/10/23 12:55:06;;;;;;;1.50;1.00;;;13.80;98.20;;;;;;5019268;28;20882;-75
2021/10/23 12:57:33;;;;;;;1.57;1.00;;;13.80;98.20;;;;;;5016247;28;20486;-74
2021/10/23 13:00:00;;;;;;;1.57;1.10;;;13.70;98.20;;;;;;5019495;28;20558;-75
2021/10/23 13:02:27;;;;;;;1.50;1.00;;;13.70;98.20;;;;;;4998769;28;20629;-75
2021/10/23 13:04:55;;;;;;;1.57;1.00;;;13.70;98.20;;;;;;5018398;28;20945;-76